Time;durP1;ratioP1;P1;durP2;ratioP2;P2;SDS_P1;SDS_P2;PMS_P1;PMS_P2;Temp;Humidity;BMP_temperature;BMP_pressure;BME280_temperature;BME280_humidity;BME280_pressure;Samples;Min_cycle;Max_cycle;Signal;HPM_P1;HPM_P2
2023/04/20 00:01:02;;;;;;;10.85;7.50;;;7.50;70.80;;;;;;5072995;28;20028;-77
2023/04/20 00:03:28;;;;;;;8.30;6.68;;;7.60;70.80;;;;;;5073063;28;20070;-77
2023/04/20 00:05:54;;;;;;;10.57;6.95;;;7.50;70.70;;;;;;5072916;28;20044;-76
2023/04/20 00:08:19;;;;;;;11.57;5.78;;;7.50;70.50;;;;;;5072888;28;20025;-77
2023/04/20 00:10:45;;;;;;;8.45;5.60;;;7.50;70.20;;;;;;5072667;28;20021;-77
2023/04/20 00:13:11;;;;;;;7.85;4.93;;;7.50;70.70;;;;;;5072703;28;20028;-77
2023/04/20 00:15:37;;;;;;;7.40;4.93;;;7.50;69.40;;;;;;5072963;28;20469;-77
2023/04/20 00:18:03;;;;;;;6.47;5.40;;;7.50;69.20;;;;;;5073790;28;20485;-77
2023/04/20 00:20:28;;;;;;;9.18;6.20;;;7.50;69.10;;;;;;5072546;28;20025;-77
2023/04/20 00:22:54;;;;;;;6.95;4.95;;;7.50;68.70;;;;;;5072291;28;20024;-77
2023/04/20 00:25:20;;;;;;;8.23;5.78;;;7.50;68.60;;;;;;5072760;28;20055;-77
2023/04/20 00:27:45;;;;;;;10.43;6.18;;;7.40;68.10;;;;;;5072709;28;20028;-77
2023/04/20 00:30:11;;;;;;;11.75;6.78;;;7.40;68.10;;;;;;5072387;28;20025;-77
2023/04/20 00:32:37;;;;;;;11.20;8.18;;;7.20;69.10;;;;;;5072226;28;20032;-77
2023/04/20 00:35:03;;;;;;;12.85;9.98;;;7.10;70.80;;;;;;5072094;28;20036;-77
2023/04/20 00:37:29;;;;;;;14.05;10.65;;;7.00;72.30;;;;;;5072089;28;20081;-77
2023/04/20 00:39:56;;;;;;;15.15;10.00;;;6.90;72.60;;;;;;5072419;28;20115;-76
2023/04/20 00:42:22;;;;;;;15.00;10.52;;;7.00;73.40;;;;;;5072254;28;20150;-77
2023/04/20 00:44:49;;;;;;;13.32;10.02;;;7.00;72.50;;;;;;5072256;28;20127;-76
2023/04/20 00:47:15;;;;;;;12.98;9.30;;;6.90;72.50;;;;;;5072276;28;20024;-77
2023/04/20 00:49:42;;;;;;;12.40;9.05;;;6.90;72.50;;;;;;5072193;28;20021;-76
2023/04/20 00:52:08;;;;;;;13.48;9.52;;;6.90;72.30;;;;;;5072513;28;20024;-77
2023/04/20 00:54:35;;;;;;;11.25;7.78;;;6.80;71.80;;;;;;5071844;28;20123;-78
2023/04/20 00:57:01;;;;;;;11.70;8.35;;;6.70;72.30;;;;;;5071908;28;20020;-76
2023/04/20 00:59:26;;;;;;;13.10;9.65;;;6.70;72.30;;;;;;5072044;28;20098;-77
2023/04/20 01:01:52;;;;;;;17.50;10.75;;;6.70;72.80;;;;;;5071789;28;20017;-77
2023/04/20 01:04:19;;;;;;;14.10;10.75;;;6.60;73.10;;;;;;5071685;28;20025;-77
2023/04/20 01:06:45;;;;;;;15.18;10.75;;;6.50;73.50;;;;;;5071819;28;20361;-77
2023/04/20 01:09:11;;;;;;;15.93;11.10;;;6.50;73.80;;;;;;5072025;28;20078;-77
2023/04/20 01:11:37;;;;;;;13.13;10.27;;;6.50;74.00;;;;;;5071860;28;20028;-77
2023/04/20 01:14:04;;;;;;;14.60;10.27;;;6.50;73.60;;;;;;5071596;28;20032;-77
2023/04/20 01:16:30;;;;;;;16.30;10.75;;;6.50;73.40;;;;;;5071488;28;20031;-76
2023/04/20 01:18:56;;;;;;;19.55;11.07;;;6.50;73.30;;;;;;5071592;28;20440;-77
2023/04/20 01:21:22;;;;;;;12.23;9.23;;;6.50;73.40;;;;;;5071753;28;20056;-78
2023/04/20 01:23:48;;;;;;;15.43;11.05;;;6.50;73.50;;;;;;5071747;28;20389;-77
2023/04/20 01:26:15;;;;;;;15.57;10.93;;;6.50;73.50;;;;;;5071623;28;20032;-77
2023/04/20 01:28:41;;;;;;;16.65;11.30;;;6.40;73.50;;;;;;5071432;28;20024;-77
2023/04/20 01:31:08;;;;;;;14.52;10.40;;;6.40;73.80;;;;;;5071800;28;20128;-77
2023/04/20 01:33:34;;;;;;;13.60;10.52;;;6.40;74.00;;;;;;5071499;28;20032;-77
2023/04/20 01:35:59;;;;;;;13.60;9.95;;;6.40;74.30;;;;;;5072173;28;20135;-77
2023/04/20 01:38:25;;;;;;;16.55;10.30;;;6.50;74.40;;;;;;5071337;28;20056;-77
2023/04/20 01:40:52;;;;;;;16.45;10.80;;;6.50;74.30;;;;;;5070939;28;20028;-77
2023/04/20 01:43:18;;;;;;;13.93;10.60;;;6.50;74.00;;;;;;5070682;28;20043;-77
2023/04/20 01:45:44;;;;;;;15.88;11.45;;;6.50;74.00;;;;;;5071431;28;20032;-77
2023/04/20 01:48:10;;;;;;;15.07;10.40;;;6.30;74.00;;;;;;5070767;28;20033;-77
2023/04/20 01:50:35;;;;;;;14.15;10.48;;;6.30;74.50;;;;;;5071464;28;20070;-77
2023/04/20 01:53:01;;;;;;;14.93;9.95;;;6.20;74.50;;;;;;5071057;28;20029;-77
2023/04/20 01:55:27;;;;;;;14.45;10.48;;;6.30;74.60;;;;;;5071116;28;20404;-76
2023/04/20 01:57:52;;;;;;;15.88;11.07;;;6.30;74.60;;;;;;5071390;28;20071;-77
2023/04/20 02:00:18;;;;;;;17.23;12.68;;;6.30;74.40;;;;;;5072807;28;20020;-76
2023/04/20 02:02:43;;;;;;;18.13;11.05;;;6.30;74.60;;;;;;5074492;28;20451;-77
2023/04/20 02:05:10;;;;;;;15.00;9.98;;;6.30;74.50;;;;;;5071504;28;20031;-77
2023/04/20 02:07:36;;;;;;;23.38;16.13;;;6.20;74.00;;;;;;5073490;28;20028;-77
2023/04/20 02:10:02;;;;;;;22.05;13.95;;;6.20;74.10;;;;;;5075332;28;20506;-77
2023/04/20 02:12:28;;;;;;;19.08;12.85;;;6.10;74.50;;;;;;5074891;28;20139;-77
2023/04/20 02:14:54;;;;;;;17.75;11.65;;;6.10;74.70;;;;;;5074686;28;20068;-77
2023/04/20 02:17:19;;;;;;;18.80;12.80;;;6.00;74.80;;;;;;5074430;28;20385;-78
2023/04/20 02:19:45;;;;;;;18.73;12.57;;;6.10;75.20;;;;;;5074635;28;20093;-77
2023/04/20 02:22:11;;;;;;;19.15;13.35;;;6.10;75.40;;;;;;5075037;28;20024;-78
2023/04/20 02:24:37;;;;;;;19.30;13.38;;;6.10;75.30;;;;;;5074813;28;20028;-77
2023/04/20 02:27:03;;;;;;;17.95;12.20;;;6.20;75.10;;;;;;5075085;28;20104;-78
2023/04/20 02:29:28;;;;;;;15.07;11.07;;;6.10;75.10;;;;;;5074837;28;20461;-77
2023/04/20 02:31:54;;;;;;;16.52;12.25;;;5.90;75.60;;;;;;5074680;28;20072;-77
2023/04/20 02:34:19;;;;;;;16.63;11.38;;;5.90;75.60;;;;;;5074462;28;20547;-77
2023/04/20 02:36:47;;;;;;;13.43;10.63;;;6.00;75.70;;;;;;5074395;28;20449;-77
2023/04/20 02:39:13;;;;;;;15.07;10.32;;;5.90;76.10;;;;;;5074696;28;20055;-77
2023/04/20 02:41:39;;;;;;;14.13;9.85;;;6.00;76.20;;;;;;5074525;28;20024;-76
2023/04/20 02:44:05;;;;;;;14.98;10.18;;;6.00;76.10;;;;;;5074568;28;20033;-76
2023/04/20 02:46:30;;;;;;;18.52;11.50;;;6.00;76.00;;;;;;5074257;28;20030;-76
2023/04/20 02:48:56;;;;;;;16.58;10.68;;;6.00;75.80;;;;;;5074580;28;20031;-76
2023/04/20 02:51:21;;;;;;;26.33;15.32;;;6.00;75.70;;;;;;5074104;28;20029;-76
2023/04/20 02:53:48;;;;;;;34.90;16.88;;;5.90;75.40;;;;;;5073569;28;20024;-76
2023/04/20 02:56:14;;;;;;;31.10;18.20;;;5.90;75.20;;;;;;5074152;28;20024;-76
2023/04/20 02:58:40;;;;;;;31.33;18.67;;;5.80;75.10;;;;;;5073543;28;20027;-75
2023/04/20 03:01:06;;;;;;;22.48;14.13;;;5.80;75.30;;;;;;5075457;28;20032;-76
2023/04/20 03:03:31;;;;;;;19.30;13.27;;;5.70;75.40;;;;;;5074235;28;20032;-76
2023/04/20 03:05:57;;;;;;;18.83;11.95;;;5.60;75.80;;;;;;5074095;28;20027;-76
2023/04/20 03:08:23;;;;;;;19.25;12.32;;;5.60;76.00;;;;;;5073924;28;20028;-76
2023/04/20 03:10:48;;;;;;;20.25;12.30;;;5.50;75.90;;;;;;5073429;28;20031;-76
2023/04/20 03:13:14;;;;;;;16.23;11.35;;;5.10;77.10;;;;;;5073698;28;20409;-76
2023/04/20 03:15:40;;;;;;;17.92;11.05;;;4.90;78.20;;;;;;5073735;28;20024;-77
2023/04/20 03:18:05;;;;;;;18.48;12.00;;;5.00;78.50;;;;;;5073754;28;20419;-76
2023/04/20 03:20:31;;;;;;;23.63;15.77;;;5.00;78.20;;;;;;5073696;28;20075;-75
2023/04/20 03:22:57;;;;;;;25.13;17.05;;;5.00;77.80;;;;;;5073791;28;20023;-76
2023/04/20 03:25:22;;;;;;;23.27;17.02;;;5.10;78.00;;;;;;5074599;28;20437;-76
2023/04/20 03:27:48;;;;;;;25.73;17.35;;;5.10;77.80;;;;;;5073490;28;20047;-76
2023/04/20 03:30:14;;;;;;;25.10;17.00;;;5.00;77.60;;;;;;5074038;28;20028;-75
2023/04/20 03:32:40;;;;;;;20.58;15.13;;;5.10;77.70;;;;;;5073538;28;20059;-76
2023/04/20 03:35:07;;;;;;;20.13;13.43;;;5.20;77.60;;;;;;5073113;28;20075;-77
2023/04/20 03:37:33;;;;;;;17.48;12.82;;;5.20;77.30;;;;;;5073217;28;20025;-76
2023/04/20 03:39:59;;;;;;;17.33;11.82;;;5.20;77.00;;;;;;5073302;28;20492;-77
2023/04/20 03:42:24;;;;;;;16.08;11.60;;;5.30;76.90;;;;;;5073299;28;20056;-76
2023/04/20 03:44:51;;;;;;;15.85;11.13;;;5.20;76.70;;;;;;5072967;28;20482;-77
2023/04/20 03:47:16;;;;;;;17.73;12.32;;;5.20;76.70;;;;;;5056708;28;20046;-76
2023/04/20 03:49:42;;;;;;;15.93;12.23;;;5.20;76.60;;;;;;5072779;28;20532;-76
2023/04/20 03:52:08;;;;;;;16.83;11.52;;;5.10;77.00;;;;;;5072569;28;20032;-76
2023/04/20 03:54:33;;;;;;;16.52;11.82;;;5.10;77.00;;;;;;5072666;28;20071;-76
2023/04/20 03:56:59;;;;;;;20.02;12.15;;;5.20;76.90;;;;;;5072734;28;20017;-76
2023/04/20 03:59:24;;;;;;;16.90;11.75;;;5.10;76.90;;;;;;5072321;28;20031;-75
2023/04/20 04:01:50;;;;;;;17.95;12.68;;;5.20;77.00;;;;;;5072699;28;20055;-76
2023/04/20 04:04:16;;;;;;;18.55;13.80;;;5.10;76.90;;;;;;5072863;28;20020;-76
2023/04/20 04:06:41;;;;;;;21.00;13.70;;;5.10;76.90;;;;;;5072607;28;20107;-76
2023/04/20 04:09:08;;;;;;;18.67;13.48;;;5.00;76.80;;;;;;5055945;28;20043;-76
2023/04/20 04:11:33;;;;;;;18.65;13.90;;;5.10;76.80;;;;;;5072663;28;20488;-76
2023/04/20 04:13:59;;;;;;;16.75;11.68;;;5.00;76.80;;;;;;5055368;28;20074;-75
2023/04/20 04:16:25;;;;;;;17.55;11.88;;;5.00;77.10;;;;;;5073473;28;20027;-75
2023/04/20 04:18:50;;;;;;;19.63;12.82;;;4.90;77.30;;;;;;5072040;28;20025;-76
2023/04/20 04:21:16;;;;;;;17.20;11.80;;;5.00;77.40;;;;;;5072023;28;20028;-76
2023/04/20 04:23:42;;;;;;;16.20;12.25;;;5.00;77.20;;;;;;5072503;28;20469;-74
2023/04/20 04:26:08;;;;;;;20.10;13.98;;;5.00;77.10;;;;;;5072503;28;20024;-74
2023/04/20 04:28:34;;;;;;;23.33;13.90;;;5.00;77.00;;;;;;5071876;28;20031;-74
2023/04/20 04:31:04;;;;;;;25.17;14.68;;;5.00;76.80;;;;;;5071870;28;20025;-74
2023/04/20 04:33:32;;;;;;;18.13;13.57;;;5.00;76.70;;;;;;5072087;28;20143;-75
2023/04/20 04:35:59;;;;;;;18.00;13.57;;;5.10;76.80;;;;;;5071991;28;20094;-75
2023/04/20 04:38:25;;;;;;;16.55;13.65;;;5.00;76.50;;;;;;5071649;28;20487;-75
2023/04/20 04:40:51;;;;;;;17.90;13.70;;;5.10;76.80;;;;;;5072030;28;20052;-74
2023/04/20 04:43:18;;;;;;;17.02;12.45;;;5.10;76.50;;;;;;5071909;28;20094;-76
2023/04/20 04:45:46;;;;;;;16.98;12.65;;;5.10;76.20;;;;;;5072212;28;20074;-74
2023/04/20 04:48:12;;;;;;;14.57;13.02;;;5.00;76.10;;;;;;5072248;28;20024;-75
2023/04/20 04:50:38;;;;;;;18.40;15.55;;;5.00;76.30;;;;;;5071942;28;20024;-75
2023/04/20 04:53:04;;;;;;;17.55;14.48;;;5.10;76.20;;;;;;5071702;28;20397;-75
2023/04/20 04:55:29;;;;;;;16.48;13.35;;;5.00;76.20;;;;;;5070586;28;20033;-75
2023/04/20 04:57:56;;;;;;;18.00;13.50;;;5.00;76.20;;;;;;5073244;28;20040;-75
2023/04/20 05:00:22;;;;;;;17.77;12.32;;;5.00;76.20;;;;;;5073689;28;20385;-74
2023/04/20 05:02:48;;;;;;;16.58;12.95;;;5.10;76.40;;;;;;5072359;28;20020;-75
2023/04/20 05:05:13;;;;;;;19.90;12.25;;;5.00;76.30;;;;;;5072336;28;20016;-76
2023/04/20 05:07:39;;;;;;;14.52;11.52;;;5.00;76.20;;;;;;5071906;28;20024;-75
2023/04/20 05:10:06;;;;;;;16.42;11.32;;;5.10;75.90;;;;;;5073125;28;20378;-74
2023/04/20 05:12:32;;;;;;;13.45;10.68;;;5.10;75.70;;;;;;5071369;28;20028;-74
2023/04/20 05:14:58;;;;;;;16.55;11.98;;;5.10;75.50;;;;;;5072104;28;20044;-75
2023/04/20 05:17:23;;;;;;;16.95;13.70;;;5.10;75.60;;;;;;5071738;28;20020;-74
2023/04/20 05:19:49;;;;;;;18.55;13.73;;;5.00;74.80;;;;;;5072212;28;20055;-75
2023/04/20 05:22:14;;;;;;;21.95;14.93;;;4.90;75.40;;;;;;5073121;28;20036;-75
2023/04/20 05:24:41;;;;;;;26.42;14.73;;;4.80;75.80;;;;;;5073034;28;20031;-76
2023/04/20 05:27:08;;;;;;;18.83;13.73;;;4.70;76.20;;;;;;5073738;28;20533;-75
2023/04/20 05:29:33;;;;;;;21.13;12.93;;;4.70;76.20;;;;;;5072868;28;20054;-75
2023/04/20 05:31:59;;;;;;;21.35;15.38;;;4.70;76.40;;;;;;5072876;28;20479;-75
2023/04/20 05:34:25;;;;;;;21.98;15.75;;;4.80;76.40;;;;;;5073021;28;20528;-75
2023/04/20 05:36:51;;;;;;;20.77;15.13;;;4.80;76.00;;;;;;5071566;28;20393;-74
2023/04/20 05:39:17;;;;;;;24.05;15.80;;;4.90;76.00;;;;;;5071322;28;20077;-74
2023/04/20 05:41:43;;;;;;;35.15;20.85;;;4.90;75.90;;;;;;5072225;28;20427;-74
2023/04/20 05:44:09;;;;;;;30.45;19.40;;;5.00;75.80;;;;;;5075267;28;20025;-75
2023/04/20 05:46:36;;;;;;;36.88;21.52;;;5.10;75.70;;;;;;5076267;28;20063;-77
2023/04/20 05:49:01;;;;;;;29.38;17.90;;;5.10;75.60;;;;;;5074539;28;20020;-74
2023/04/20 05:51:30;;;;;;;22.30;16.55;;;5.00;75.40;;;;;;5074706;28;20039;-73
2023/04/20 05:53:56;;;;;;;22.33;15.23;;;5.00;75.60;;;;;;5074789;28;20028;-73
2023/04/20 05:56:22;;;;;;;25.23;17.25;;;5.10;75.60;;;;;;5074797;28;20021;-73
2023/04/20 05:58:47;;;;;;;21.95;16.33;;;4.90;75.50;;;;;;5074684;28;20067;-73
2023/04/20 06:01:13;;;;;;;21.58;16.13;;;4.80;75.90;;;;;;5074964;28;20469;-74
2023/04/20 06:03:39;;;;;;;22.67;15.93;;;4.80;76.40;;;;;;5074290;28;20028;-75
2023/04/20 06:06:04;;;;;;;23.52;16.63;;;4.80;76.40;;;;;;5074871;28;20035;-74
2023/04/20 06:08:30;;;;;;;22.95;16.73;;;4.80;76.40;;;;;;5074341;28;20118;-75
2023/04/20 06:10:56;;;;;;;27.15;17.83;;;4.80;76.40;;;;;;5074342;28;20127;-75
2023/04/20 06:13:22;;;;;;;25.27;18.75;;;4.90;76.40;;;;;;5074247;28;20031;-75
2023/04/20 06:15:48;;;;;;;26.52;19.33;;;5.00;76.20;;;;;;5074125;28;20033;-75
2023/04/20 06:18:14;;;;;;;24.25;17.77;;;5.00;75.60;;;;;;5057670;28;20068;-75
2023/04/20 06:20:42;;;;;;;27.02;18.75;;;4.90;75.70;;;;;;5074388;28;20033;-75
2023/04/20 06:23:08;;;;;;;25.52;17.88;;;5.00;75.90;;;;;;5074389;28;20503;-75
2023/04/20 06:25:35;;;;;;;24.90;18.38;;;5.00;75.90;;;;;;5074385;28;20060;-75
2023/04/20 06:28:02;;;;;;;22.45;16.13;;;5.10;75.90;;;;;;5074513;28;20048;-76
2023/04/20 06:30:27;;;;;;;24.83;18.33;;;5.20;75.70;;;;;;5073728;28;20033;-75
2023/04/20 06:32:53;;;;;;;25.30;18.08;;;5.20;75.40;;;;;;5074382;28;20077;-75
2023/04/20 06:35:18;;;;;;;24.42;17.98;;;5.20;75.20;;;;;;5073909;28;20052;-75
2023/04/20 06:37:44;;;;;;;21.20;16.45;;;5.20;75.30;;;;;;5073159;28;20432;-75
2023/04/20 06:40:10;;;;;;;23.08;15.73;;;5.20;75.00;;;;;;5072725;28;20540;-77
2023/04/20 06:42:36;;;;;;;25.17;18.42;;;5.30;74.80;;;;;;5073102;28;20116;-76
2023/04/20 06:45:02;;;;;;;24.70;17.38;;;5.30;74.70;;;;;;5074277;28;20097;-75
2023/04/20 06:47:30;;;;;;;26.20;19.30;;;5.20;74.50;;;;;;5073106;28;20028;-75
2023/04/20 06:50:00;;;;;;;25.58;17.77;;;5.20;74.70;;;;;;5073197;28;20024;-75
2023/04/20 06:52:27;;;;;;;19.65;15.40;;;5.20;74.80;;;;;;5072476;28;20048;-76
2023/04/20 06:54:53;;;;;;;26.23;19.42;;;5.30;74.70;;;;;;5055432;28;20516;-76
2023/04/20 06:57:18;;;;;;;24.55;17.63;;;5.30;74.00;;;;;;5072848;28;20024;-76
2023/04/20 06:59:45;;;;;;;22.45;18.63;;;5.30;74.10;;;;;;5072402;28;20427;-77
2023/04/20 07:02:12;;;;;;;22.40;15.95;;;5.30;73.80;;;;;;5072811;28;20081;-78
2023/04/20 07:04:38;;;;;;;24.52;18.20;;;5.30;73.70;;;;;;5072207;28;20052;-77
2023/04/20 07:07:03;;;;;;;23.08;18.38;;;5.30;73.60;;;;;;5072259;28;20027;-85
2023/04/20 07:09:29;;;;;;;30.30;20.05;;;5.10;74.20;;;;;;5074369;28;20040;-87
2023/04/20 07:11:57;;;;;;;25.98;18.15;;;5.10;74.50;;;;;;5074575;28;20024;-79
2023/04/20 07:14:23;;;;;;;22.15;17.08;;;5.00;75.10;;;;;;5056626;28;20036;-82
2023/04/20 07:16:52;;;;;;;23.13;17.70;;;5.00;75.20;;;;;;5074566;28;20025;-78
2023/04/20 07:19:18;;;;;;;26.30;19.05;;;5.10;75.00;;;;;;5071710;28;20532;-76
2023/04/20 07:21:44;;;;;;;23.75;17.48;;;5.10;74.70;;;;;;5072147;28;20021;-79
2023/04/20 07:24:09;;;;;;;25.13;18.33;;;5.10;74.90;;;;;;5072423;28;20024;-77
2023/04/20 07:26:35;;;;;;;24.75;17.65;;;5.00;75.30;;;;;;5072146;28;20024;-77
2023/04/20 07:29:00;;;;;;;24.67;19.63;;;5.00;75.40;;;;;;5072357;28;20017;-76
2023/04/20 07:31:26;;;;;;;23.10;18.20;;;4.90;75.80;;;;;;5055588;28;20032;-77
2023/04/20 07:33:52;;;;;;;24.23;17.98;;;4.90;76.00;;;;;;5071964;28;20024;-76
2023/04/20 07:36:18;;;;;;;23.02;17.10;;;5.00;75.70;;;;;;5012892;28;1683863;-77
2023/04/20 07:38:44;;;;;;;26.70;17.65;;;5.00;75.50;;;;;;5073084;28;20119;-77
2023/04/20 07:41:10;;;;;;;24.75;17.08;;;5.00;75.20;;;;;;5073033;28;20107;-77
2023/04/20 07:43:36;;;;;;;22.65;17.38;;;5.00;75.20;;;;;;5072544;28;20029;-78
2023/04/20 07:46:01;;;;;;;36.83;18.15;;;4.90;75.90;;;;;;5073113;28;20028;-82
2023/04/20 07:48:27;;;;;;;26.88;18.23;;;5.10;84.40;;;;;;5072646;28;20033;-82
2023/04/20 07:50:53;;;;;;;25.33;16.70;;;5.40;83.70;;;;;;5071956;28;20112;-81
2023/04/20 07:53:18;;;;;;;20.65;15.73;;;5.70;84.20;;;;;;5072305;28;20029;-81
2023/04/20 07:55:44;;;;;;;18.25;13.77;;;6.10;81.90;;;;;;5072888;28;20480;-80
2023/04/20 07:58:10;;;;;;;22.33;14.02;;;6.40;78.60;;;;;;5072362;28;20012;-82
2023/04/20 08:00:36;;;;;;;19.33;13.18;;;6.60;76.20;;;;;;5072316;28;20033;-82
2023/04/20 08:03:02;;;;;;;18.48;13.52;;;6.70;74.90;;;;;;5071900;28;20020;-81
2023/04/20 08:05:30;;;;;;;16.67;12.07;;;6.90;73.30;;;;;;5071645;28;20492;-76
2023/04/20 08:07:56;;;;;;;17.85;12.75;;;7.00;71.30;;;;;;5073643;28;20048;-76
2023/04/20 08:10:21;;;;;;;17.75;13.00;;;6.80;70.00;;;;;;5071866;28;20071;-75
2023/04/20 08:12:47;;;;;;;22.77;16.17;;;6.70;70.50;;;;;;5072177;28;20236;-76
2023/04/20 08:15:13;;;;;;;19.65;15.02;;;6.30;71.00;;;;;;5071964;28;20029;-76
2023/04/20 08:17:39;;;;;;;19.65;14.45;;;6.00;72.30;;;;;;5071915;28;20427;-75
2023/04/20 08:20:06;;;;;;;21.30;15.90;;;5.80;73.20;;;;;;5071929;28;20024;-76
2023/04/20 08:22:32;;;;;;;22.70;16.85;;;5.60;74.10;;;;;;5071062;28;20021;-75
2023/04/20 08:24:58;;;;;;;25.23;15.73;;;5.50;75.50;;;;;;5071973;28;20094;-75
2023/04/20 08:27:24;;;;;;;24.70;16.65;;;5.30;76.30;;;;;;5071616;28;20399;-74
2023/04/20 08:29:49;;;;;;;21.50;15.85;;;5.20;76.40;;;;;;5070273;28;20127;-74
2023/04/20 08:32:17;;;;;;;21.58;15.85;;;5.10;76.80;;;;;;5055204;28;20469;-76
2023/04/20 08:34:43;;;;;;;20.38;14.20;;;5.20;76.80;;;;;;5071732;28;20036;-75
2023/04/20 08:37:09;;;;;;;17.60;13.90;;;5.30;77.00;;;;;;5071192;28;20051;-74
2023/04/20 08:39:35;;;;;;;21.85;14.93;;;5.40;76.90;;;;;;5071664;28;20089;-74
2023/04/20 08:42:01;;;;;;;21.73;15.30;;;5.50;76.60;;;;;;5071664;28;20029;-74
2023/04/20 08:44:26;;;;;;;24.05;14.82;;;5.50;76.70;;;;;;5070500;28;20483;-74
2023/04/20 08:46:53;;;;;;;17.85;14.05;;;5.50;75.80;;;;;;5071174;28;20028;-74
2023/04/20 08:49:21;;;;;;;17.77;13.25;;;5.50;76.10;;;;;;5071196;28;20035;-74
2023/04/20 08:51:47;;;;;;;18.67;13.63;;;5.50;75.60;;;;;;5071609;28;20028;-74
2023/04/20 08:54:13;;;;;;;25.40;14.55;;;5.50;75.90;;;;;;5071951;28;20115;-74
2023/04/20 08:56:41;;;;;;;19.50;14.02;;;5.50;76.50;;;;;;5071345;28;20360;-74
2023/04/20 08:59:11;;;;;;;20.33;13.85;;;5.30;77.70;;;;;;5071325;28;20445;-74
2023/04/20 09:01:40;;;;;;;16.50;12.85;;;5.30;78.70;;;;;;5071303;28;20028;-74
2023/04/20 09:04:19;;;;;;;20.85;14.50;;;5.40;77.70;;;;;;5071105;28;20036;-75
2023/04/20 09:06:49;;;;;;;15.82;13.82;;;5.40;78.20;;;;;;5071002;28;20052;-75
2023/04/20 09:09:15;;;;;;;18.02;12.93;;;5.40;79.00;;;;;;5071328;28;20174;-75
2023/04/20 09:11:41;;;;;;;15.40;12.00;;;5.50;79.40;;;;;;5071098;28;20083;-75
2023/04/20 09:14:11;;;;;;;15.30;11.05;;;5.80;78.50;;;;;;5071188;28;20067;-75
2023/04/20 09:16:38;;;;;;;16.95;12.27;;;6.00;77.10;;;;;;5071017;28;20024;-74
2023/04/20 09:19:04;;;;;;;17.08;12.45;;;6.30;77.30;;;;;;5071339;28;20024;-74
2023/04/20 09:21:31;;;;;;;16.52;12.77;;;6.40;76.10;;;;;;5071021;28;20029;-74
2023/04/20 09:24:01;;;;;;;13.15;10.55;;;6.50;75.70;;;;;;5071159;28;20025;-74
2023/04/20 09:26:30;;;;;;;14.68;10.20;;;6.50;74.70;;;;;;5070493;28;20028;-74
2023/04/20 09:28:55;;;;;;;13.70;9.40;;;6.60;75.00;;;;;;5054442;28;20081;-74
2023/04/20 09:31:22;;;;;;;16.90;12.23;;;6.70;74.80;;;;;;5071673;28;20024;-74
2023/04/20 09:34:02;;;;;;;14.75;12.00;;;6.70;73.40;;;;;;5070667;28;20029;-74
2023/04/20 09:36:39;;;;;;;13.73;10.77;;;6.50;74.90;;;;;;5069857;28;20539;-74
2023/04/20 09:39:10;;;;;;;14.57;11.38;;;6.50;75.00;;;;;;5070628;28;20056;-74
2023/04/20 09:41:38;;;;;;;15.32;11.90;;;6.60;75.40;;;;;;5071290;28;20025;-74
2023/04/20 09:44:04;;;;;;;17.92;13.38;;;6.60;75.70;;;;;;5070927;28;20032;-75
2023/04/20 09:46:32;;;;;;;18.45;12.75;;;6.70;76.80;;;;;;5070783;28;20055;-74
2023/04/20 09:49:00;;;;;;;16.30;12.60;;;6.70;77.60;;;;;;5070972;28;20028;-84
2023/04/20 09:51:53;;;;;;;20.88;12.95;;;6.70;76.60;;;;;;5072607;28;20067;-83
2023/04/20 09:54:19;;;;;;;21.70;14.90;;;6.70;76.80;;;;;;5070961;28;20072;-85
2023/04/20 09:56:45;;;;;;;18.92;14.27;;;6.70;78.00;;;;;;5071945;28;20041;-78
2023/04/20 09:59:12;;;;;;;18.85;14.20;;;6.70;77.60;;;;;;5071569;28;20587;-76
2023/04/20 10:01:38;;;;;;;17.77;12.32;;;6.80;77.60;;;;;;5069885;28;20078;-75
2023/04/20 10:04:12;;;;;;;15.48;11.77;;;7.00;77.50;;;;;;5070281;28;20021;-82
2023/04/20 10:06:39;;;;;;;12.68;10.35;;;7.20;76.60;;;;;;5071939;28;20044;-79
2023/04/20 10:09:07;;;;;;;14.60;11.93;;;7.30;76.20;;;;;;5071001;28;20503;-76
2023/04/20 10:11:39;;;;;;;17.33;11.98;;;7.50;76.10;;;;;;5071525;28;20050;-81
2023/04/20 10:14:18;;;;;;;17.15;12.63;;;7.60;76.80;;;;;;5070653;28;20036;-75
2023/04/20 10:16:56;;;;;;;15.45;11.82;;;7.80;75.30;;;;;;5071052;28;20071;-75
2023/04/20 10:19:22;;;;;;;15.20;11.52;;;8.00;74.80;;;;;;5070690;28;20021;-75
2023/04/20 10:21:49;;;;;;;18.02;12.25;;;8.00;74.40;;;;;;5070825;28;20025;-77
2023/04/20 10:24:28;;;;;;;13.15;10.35;;;7.90;74.20;;;;;;5069925;28;20024;-77
2023/04/20 10:26:53;;;;;;;13.82;10.93;;;7.90;74.10;;;;;;5070308;28;20107;-77
2023/04/20 10:29:26;;;;;;;16.15;11.80;;;7.90;74.20;;;;;;5073704;28;20063;-77
2023/04/20 10:31:53;;;;;;;18.08;12.70;;;7.80;73.70;;;;;;5073991;28;20481;-77
2023/04/20 10:34:32;;;;;;;17.63;12.80;;;7.70;74.60;;;;;;5073875;28;20032;-77
2023/04/20 10:37:12;;;;;;;17.58;13.23;;;7.50;75.70;;;;;;5077426;28;20518;-76
2023/04/20 10:39:45;;;;;;;17.33;13.35;;;7.10;75.90;;;;;;5094331;28;20120;-76
2023/04/20 10:42:11;;;;;;;18.27;14.43;;;6.80;77.90;;;;;;5093945;28;20464;-77
2023/04/20 10:44:50;;;;;;;18.23;13.75;;;6.70;78.40;;;;;;5093785;28;20032;-77
2023/04/20 10:47:17;;;;;;;18.70;14.45;;;6.80;79.10;;;;;;5094248;28;20468;-78
2023/04/20 10:49:43;;;;;;;15.85;12.75;;;6.90;79.00;;;;;;5094101;28;20039;-77
2023/04/20 10:52:08;;;;;;;20.05;14.23;;;6.90;80.30;;;;;;5094387;28;20028;-77
2023/04/20 10:54:38;;;;;;;18.77;13.40;;;7.10;80.10;;;;;;5094096;28;20344;-77
2023/04/20 10:57:05;;;;;;;13.88;11.45;;;7.20;79.10;;;;;;5095137;28;20035;-77
2023/04/20 10:59:31;;;;;;;16.98;12.88;;;7.30;78.90;;;;;;5094138;28;20027;-77
2023/04/20 11:02:00;;;;;;;16.85;13.00;;;7.30;78.00;;;;;;5093859;28;20199;-77
2023/04/20 11:04:31;;;;;;;18.15;12.18;;;7.30;77.60;;;;;;5093702;28;20464;-76
2023/04/20 11:07:05;;;;;;;14.95;10.82;;;7.50;78.10;;;;;;5094106;28;20090;-76
2023/04/20 11:09:33;;;;;;;12.65;8.68;;;7.50;76.90;;;;;;5093346;28;20027;-76
2023/04/20 11:12:04;;;;;;;17.75;12.23;;;7.60;75.70;;;;;;5093434;28;20024;-75
2023/04/20 11:14:31;;;;;;;16.48;12.10;;;7.60;75.40;;;;;;5093867;28;20044;-77
2023/04/20 11:16:57;;;;;;;19.05;12.40;;;7.40;75.90;;;;;;5093389;28;20020;-75
2023/04/20 11:19:31;;;;;;;18.48;12.55;;;7.30;77.00;;;;;;5094037;28;20024;-77
2023/04/20 11:21:57;;;;;;;17.83;11.25;;;7.30;78.10;;;;;;5093734;28;20020;-75
2023/04/20 11:24:25;;;;;;;18.33;14.40;;;7.00;77.40;;;;;;5093595;28;20032;-75
2023/04/20 11:26:55;;;;;;;17.55;13.90;;;7.00;78.30;;;;;;5093423;28;20020;-77
2023/04/20 11:29:32;;;;;;;20.13;15.02;;;6.90;79.30;;;;;;5086030;28;20040;-78
2023/04/20 11:32:00;;;;;;;19.10;14.40;;;6.60;79.80;;;;;;5080685;28;20345;-76
2023/04/20 11:34:26;;;;;;;19.60;14.77;;;6.50;81.10;;;;;;5076902;28;20062;-76
2023/04/20 11:36:53;;;;;;;18.88;15.38;;;6.40;81.50;;;;;;5073144;28;20098;-77
2023/04/20 11:39:26;;;;;;;20.50;15.05;;;6.40;82.30;;;;;;5055094;28;20067;-75
2023/04/20 11:41:53;;;;;;;20.88;15.18;;;6.40;82.40;;;;;;5073115;28;20017;-76
2023/04/20 11:44:22;;;;;;;21.13;14.82;;;6.50;82.30;;;;;;5073072;28;20016;-76
2023/04/20 11:46:49;;;;;;;17.02;14.55;;;6.60;82.40;;;;;;5072788;28;20527;-76
2023/04/20 11:49:19;;;;;;;20.00;14.63;;;6.70;82.20;;;;;;5072666;28;20416;-75
2023/04/20 11:51:45;;;;;;;21.55;15.38;;;6.70;81.90;;;;;;5072845;28;20028;-76
2023/04/20 11:54:12;;;;;;;18.20;14.40;;;6.70;82.00;;;;;;5072595;28;20025;-76
2023/04/20 11:56:41;;;;;;;19.05;14.35;;;6.70;81.80;;;;;;5072814;28;20043;-76
2023/04/20 11:59:07;;;;;;;18.38;14.90;;;6.60;82.40;;;;;;5074067;28;20037;-75
2023/04/20 12:01:34;;;;;;;19.95;14.70;;;6.60;82.40;;;;;;5056333;28;20032;-75
2023/04/20 12:04:00;;;;;;;16.83;15.07;;;6.60;82.70;;;;;;5076101;28;20024;-77
2023/04/20 12:06:33;;;;;;;16.65;14.10;;;6.60;82.60;;;;;;5073555;28;20079;-76
2023/04/20 12:09:00;;;;;;;17.75;13.63;;;6.60;82.50;;;;;;5072854;28;20464;-77
2023/04/20 12:11:26;;;;;;;16.52;14.23;;;6.70;82.70;;;;;;5080816;28;20044;-77
2023/04/20 12:13:53;;;;;;;18.73;14.20;;;6.70;82.80;;;;;;5067461;28;20455;-77
2023/04/20 12:16:19;;;;;;;15.40;12.65;;;6.80;82.40;;;;;;5072683;28;20041;-77
2023/04/20 12:18:45;;;;;;;23.50;15.50;;;6.90;82.50;;;;;;5055889;28;20082;-77
2023/04/20 12:21:10;;;;;;;20.20;15.93;;;7.00;82.80;;;;;;5073619;28;20017;-76
2023/04/20 12:23:36;;;;;;;16.33;12.82;;;7.00;82.70;;;;;;5076908;28;20081;-77
2023/04/20 12:26:03;;;;;;;17.05;12.90;;;7.10;82.30;;;;;;5073192;28;20025;-76
2023/04/20 12:28:29;;;;;;;13.55;11.25;;;7.20;82.30;;;;;;5072144;28;20050;-77
2023/04/20 12:30:54;;;;;;;19.83;12.52;;;7.30;82.90;;;;;;5071414;28;20469;-76
2023/04/20 12:33:20;;;;;;;13.80;11.20;;;7.40;81.40;;;;;;5071624;28;20035;-75
2023/04/20 12:35:46;;;;;;;13.95;11.60;;;7.50;82.20;;;;;;5071226;28;20048;-76